sensor_id;sensor_type;location;lat;lon;timestamp;pressure;altitude;pressure_sealevel;temperature
55038;BMP280;40937;53.594;10.034;2024-01-30T00:02:07;102869.75;;;6.10
55038;BMP280;40937;53.594;10.034;2024-01-30T00:04:35;102877.41;;;6.21
55038;BMP280;40937;53.594;10.034;2024-01-30T00:07:03;102875.16;;;6.26
55038;BMP280;40937;53.594;10.034;2024-01-30T00:09:30;102877.78;;;6.26
55038;BMP280;40937;53.594;10.034;2024-01-30T00:11:57;102878.16;;;6.32
55038;BMP280;40937;53.594;10.034;2024-01-30T00:14:29;102876.81;;;6.27
55038;BMP280;40937;53.594;10.034;2024-01-30T00:16:56;102869.91;;;6.26
55038;BMP280;40937;53.594;10.034;2024-01-30T00:19:23;102871.03;;;6.24
55038;BMP280;40937;53.594;10.034;2024-01-30T00:21:51;102867.22;;;6.18
55038;BMP280;40937;53.594;10.034;2024-01-30T00:24:18;102863.59;;;6.19
55038;BMP280;40937;53.594;10.034;2024-01-30T00:26:48;102859.75;;;6.23
55038;BMP280;40937;53.594;10.034;2024-01-30T00:29:15;102852.53;;;6.25
55038;BMP280;40937;53.594;10.034;2024-01-30T00:31:47;102858.25;;;6.11
55038;BMP280;40937;53.594;10.034;2024-01-30T00:34:16;102844.84;;;6.24
55038;BMP280;40937;53.594;10.034;2024-01-30T00:36:44;102847.88;;;6.19
55038;BMP280;40937;53.594;10.034;2024-01-30T00:39:12;102854.41;;;6.15
55038;BMP280;40937;53.594;10.034;2024-01-30T00:41:41;102852.03;;;6.22
55038;BMP280;40937;53.594;10.034;2024-01-30T00:44:09;102849.53;;;6.20
55038;BMP280;40937;53.594;10.034;2024-01-30T00:46:36;102847.59;;;6.22
55038;BMP280;40937;53.594;10.034;2024-01-30T00:49:05;102847.28;;;6.25
55038;BMP280;40937;53.594;10.034;2024-01-30T00:51:37;102847.28;;;6.25
55038;BMP280;40937;53.594;10.034;2024-01-30T00:54:05;102839.28;;;6.27
55038;BMP280;40937;53.594;10.034;2024-01-30T00:56:36;102840.03;;;6.19
55038;BMP280;40937;53.594;10.034;2024-01-30T00:59:03;102848.38;;;6.33
55038;BMP280;40937;53.594;10.034;2024-01-30T01:01:33;102846.16;;;6.28
55038;BMP280;40937;53.594;10.034;2024-01-30T01:04:01;102848.78;;;6.28
55038;BMP280;40937;53.594;10.034;2024-01-30T01:06:31;102837.63;;;6.26
55038;BMP280;40937;53.594;10.034;2024-01-30T01:08:59;102850.59;;;6.27
55038;BMP280;40937;53.594;10.034;2024-01-30T01:11:26;102848.28;;;6.24
55038;BMP280;40937;53.594;10.034;2024-01-30T01:13:56;102854.66;;;6.22
55038;BMP280;40937;53.594;10.034;2024-01-30T01:16:23;102857.56;;;6.19
55038;BMP280;40937;53.594;10.034;2024-01-30T01:18:51;102849.69;;;6.19
55038;BMP280;40937;53.594;10.034;2024-01-30T01:21:20;102861.97;;;6.18
55038;BMP280;40937;53.594;10.034;2024-01-30T01:23:49;102866.66;;;6.24
55038;BMP280;40937;53.594;10.034;2024-01-30T01:26:19;102865.28;;;6.20
55038;BMP280;40937;53.594;10.034;2024-01-30T01:28:47;102861.69;;;6.21
55038;BMP280;40937;53.594;10.034;2024-01-30T01:31:15;102853.97;;;6.20
55038;BMP280;40937;53.594;10.034;2024-01-30T01:33:45;102857.03;;;6.15
55038;BMP280;40937;53.594;10.034;2024-01-30T01:36:13;102852.69;;;6.24
55038;BMP280;40937;53.594;10.034;2024-01-30T01:38:40;102852.22;;;6.28
55038;BMP280;40937;53.594;10.034;2024-01-30T01:41:09;102856.44;;;6.21
55038;BMP280;40937;53.594;10.034;2024-01-30T01:43:38;102858.13;;;6.13
55038;BMP280;40937;53.594;10.034;2024-01-30T01:46:06;102853.69;;;6.13
55038;BMP280;40937;53.594;10.034;2024-01-30T01:48:34;102850.41;;;6.11
55038;BMP280;40937;53.594;10.034;2024-01-30T01:51:02;102851.00;;;6.05
55038;BMP280;40937;53.594;10.034;2024-01-30T01:53:29;102847.28;;;6.07
55038;BMP280;40937;53.594;10.034;2024-01-30T01:55:59;102842.72;;;6.09
55038;BMP280;40937;53.594;10.034;2024-01-30T01:58:29;102836.66;;;6.09
55038;BMP280;40937;53.594;10.034;2024-01-30T02:00:58;102847.13;;;6.09
55038;BMP280;40937;53.594;10.034;2024-01-30T02:03:25;102839.56;;;6.06
55038;BMP280;40937;53.594;10.034;2024-01-30T02:05:53;102829.75;;;6.08
55038;BMP280;40937;53.594;10.034;2024-01-30T02:08:22;102829.75;;;6.08
55038;BMP280;40937;53.594;10.034;2024-01-30T02:10:50;102821.22;;;6.06
55038;BMP280;40937;53.594;10.034;2024-01-30T02:13:18;102818.00;;;6.12
55038;BMP280;40937;53.594;10.034;2024-01-30T02:15:50;102816.78;;;6.06
55038;BMP280;40937;53.594;10.034;2024-01-30T02:18:20;102807.69;;;6.11
55038;BMP280;40937;53.594;10.034;2024-01-30T02:20:47;102806.84;;;6.10
55038;BMP280;40937;53.594;10.034;2024-01-30T02:23:16;102807.69;;;6.11
55038;BMP280;40937;53.594;10.034;2024-01-30T02:25:43;102803.22;;;6.11
55038;BMP280;40937;53.594;10.034;2024-01-30T02:28:11;102796.03;;;6.13
55038;BMP280;40937;53.594;10.034;2024-01-30T02:30:39;102795.69;;;6.08
55038;BMP280;40937;53.594;10.034;2024-01-30T02:33:06;102800.78;;;6.09
55038;BMP280;40937;53.594;10.034;2024-01-30T02:35:33;102797.22;;;6.11
55038;BMP280;40937;53.594;10.034;2024-01-30T02:38:01;102807.69;;;6.01
55038;BMP280;40937;53.594;10.034;2024-01-30T02:40:30;102795.59;;;6.00
55038;BMP280;40937;53.594;10.034;2024-01-30T02:42:59;102795.03;;;5.96
55038;BMP280;40937;53.594;10.034;2024-01-30T02:45:27;102786.75;;;6.01
55038;BMP280;40937;53.594;10.034;2024-01-30T02:47:55;102788.94;;;6.05
55038;BMP280;40937;53.594;10.034;2024-01-30T02:50:22;102787.50;;;6.11
55038;BMP280;40937;53.594;10.034;2024-01-30T02:52:49;102779.50;;;6.13
55038;BMP280;40937;53.594;10.034;2024-01-30T02:55:16;102788.78;;;6.07
55038;BMP280;40937;53.594;10.034;2024-01-30T02:57:46;102778.44;;;6.05
55038;BMP280;40937;53.594;10.034;2024-01-30T03:00:16;102783.41;;;6.08
55038;BMP280;40937;53.594;10.034;2024-01-30T03:02:43;102783.31;;;6.00
55038;BMP280;40937;53.594;10.034;2024-01-30T03:05:10;102779.59;;;6.03
55038;BMP280;40937;53.594;10.034;2024-01-30T03:07:38;102784.38;;;6.07
55038;BMP280;40937;53.594;10.034;2024-01-30T03:10:08;102781.50;;;6.01
55038;BMP280;40937;53.594;10.034;2024-01-30T03:12:37;102777.09;;;6.01
55038;BMP280;40937;53.594;10.034;2024-01-30T03:15:07;102782.59;;;6.08
55038;BMP280;40937;53.594;10.034;2024-01-30T03:17:35;102781.34;;;6.02
55038;BMP280;40937;53.594;10.034;2024-01-30T03:20:04;102767.44;;;6.02
55038;BMP280;40937;53.594;10.034;2024-01-30T03:22:32;102777.63;;;6.05
55038;BMP280;40937;53.594;10.034;2024-01-30T03:24:59;102768.13;;;6.04
55038;BMP280;40937;53.594;10.034;2024-01-30T03:27:26;102765.50;;;6.04
55038;BMP280;40937;53.594;10.034;2024-01-30T03:29:55;102766.19;;;6.06
55038;BMP280;40937;53.594;10.034;2024-01-30T03:32:27;102767.53;;;6.10
55038;BMP280;40937;53.594;10.034;2024-01-30T03:34:57;102761.47;;;6.09
55038;BMP280;40937;53.594;10.034;2024-01-30T03:37:25;102758.03;;;6.09
55038;BMP280;40937;53.594;10.034;2024-01-30T03:39:52;102760.53;;;6.11
55038;BMP280;40937;53.594;10.034;2024-01-30T03:42:20;102758.06;;;5.99
55038;BMP280;40937;53.594;10.034;2024-01-30T03:44:48;102760.53;;;6.01
55038;BMP280;40937;53.594;10.034;2024-01-30T03:47:17;102762.50;;;5.99
55038;BMP280;40937;53.594;10.034;2024-01-30T03:49:46;102757.72;;;5.94
55038;BMP280;40937;53.594;10.034;2024-01-30T03:52:13;102758.81;;;5.92
55038;BMP280;40937;53.594;10.034;2024-01-30T03:54:41;102753.44;;;5.93
55038;BMP280;40937;53.594;10.034;2024-01-30T03:57:08;102748.72;;;5.97
55038;BMP280;40937;53.594;10.034;2024-01-30T03:59:35;102744.09;;;5.90
55038;BMP280;40937;53.594;10.034;2024-01-30T04:02:03;102747.38;;;5.93
55038;BMP280;40937;53.594;10.034;2024-01-30T04:04:32;102744.53;;;5.86
55038;BMP280;40937;53.594;10.034;2024-01-30T04:07:05;102747.38;;;5.93
55038;BMP280;40937;53.594;10.034;2024-01-30T04:09:38;102738.56;;;5.94
55038;BMP280;40937;53.594;10.034;2024-01-30T04:12:06;102734.94;;;5.95
55038;BMP280;40937;53.594;10.034;2024-01-30T04:14:33;102745.44;;;5.95
55038;BMP280;40937;53.594;10.034;2024-01-30T04:17:01;102743.53;;;5.87
55038;BMP280;40937;53.594;10.034;2024-01-30T04:19:29;102747.22;;;5.94
55038;BMP280;40937;53.594;10.034;2024-01-30T04:21:56;102748.72;;;5.97
55038;BMP280;40937;53.594;10.034;2024-01-30T04:24:25;102753.19;;;5.86
55038;BMP280;40937;53.594;10.034;2024-01-30T04:26:53;102753.72;;;5.90
55038;BMP280;40937;53.594;10.034;2024-01-30T04:29:20;102748.91;;;5.85
55038;BMP280;40937;53.594;10.034;2024-01-30T04:31:48;102744.09;;;5.90
55038;BMP280;40937;53.594;10.034;2024-01-30T04:34:15;102753.19;;;5.86
55038;BMP280;40937;53.594;10.034;2024-01-30T04:36:44;102754.84;;;5.87
55038;BMP280;40937;53.594;10.034;2024-01-30T04:39:12;102759.84;;;5.81
55038;BMP280;40937;53.594;10.034;2024-01-30T04:41:41;102762.09;;;5.76
55038;BMP280;40937;53.594;10.034;2024-01-30T04:44:08;102757.97;;;5.73
55038;BMP280;40937;53.594;10.034;2024-01-30T04:46:35;102755.44;;;5.81
55038;BMP280;40937;53.594;10.034;2024-01-30T04:49:03;102757.06;;;5.82
55038;BMP280;40937;53.594;10.034;2024-01-30T04:51:31;102754.75;;;5.79
55038;BMP280;40937;53.594;10.034;2024-01-30T04:53:58;102754.09;;;5.77
55038;BMP280;40937;53.594;10.034;2024-01-30T04:56:26;102752.75;;;5.73
55038;BMP280;40937;53.594;10.034;2024-01-30T04:58:57;102758.66;;;5.75
55038;BMP280;40937;53.594;10.034;2024-01-30T05:01:28;102747.28;;;5.84
55038;BMP280;40937;53.594;10.034;2024-01-30T05:03:55;102755.75;;;5.78
55038;BMP280;40937;53.594;10.034;2024-01-30T05:06:26;102756.84;;;5.76
55038;BMP280;40937;53.594;10.034;2024-01-30T05:08:53;102756.25;;;5.82
55038;BMP280;40937;53.594;10.034;2024-01-30T05:11:21;102758.22;;;5.80
55038;BMP280;40937;53.594;10.034;2024-01-30T05:13:51;102747.88;;;5.78
55038;BMP280;40937;53.594;10.034;2024-01-30T05:16:20;102745.69;;;5.74
55038;BMP280;40937;53.594;10.034;2024-01-30T05:18:47;102749.13;;;5.74
55038;BMP280;40937;53.594;10.034;2024-01-30T05:21:14;102746.38;;;5.76
55038;BMP280;40937;53.594;10.034;2024-01-30T05:23:42;102750.41;;;5.70
55038;BMP280;40937;53.594;10.034;2024-01-30T05:26:09;102752.44;;;5.76
55038;BMP280;40937;53.594;10.034;2024-01-30T05:28:37;102754.44;;;5.82
55038;BMP280;40937;53.594;10.034;2024-01-30T05:31:04;102747.88;;;5.78
55038;BMP280;40937;53.594;10.034;2024-01-30T05:33:33;102750.19;;;5.81
55038;BMP280;40937;53.594;10.034;2024-01-30T05:36:01;102744.88;;;5.73
55038;BMP280;40937;53.594;10.034;2024-01-30T05:38:28;102747.50;;;5.73
55038;BMP280;40937;53.594;10.034;2024-01-30T05:40:56;102742.78;;;5.77
55038;BMP280;40937;53.594;10.034;2024-01-30T05:43:32;102747.22;;;5.76
55038;BMP280;40937;53.594;10.034;2024-01-30T05:46:00;102741.34;;;5.82
55038;BMP280;40937;53.594;10.034;2024-01-30T05:48:33;102727.22;;;5.75
55038;BMP280;40937;53.594;10.034;2024-01-30T05:51:01;102729.56;;;5.78
55038;BMP280;40937;53.594;10.034;2024-01-30T05:53:29;102727.38;;;5.74
55038;BMP280;40937;53.594;10.034;2024-01-30T05:55:58;102722.38;;;5.80
55038;BMP280;40937;53.594;10.034;2024-01-30T05:58:26;102726.28;;;5.66
55038;BMP280;40937;53.594;10.034;2024-01-30T06:00:53;102725.47;;;5.66
55038;BMP280;40937;53.594;10.034;2024-01-30T06:03:23;102719.41;;;5.65
55038;BMP280;40937;53.594;10.034;2024-01-30T06:05:53;102728.41;;;5.63
55038;BMP280;40937;53.594;10.034;2024-01-30T06:08:24;102723.00;;;5.64
55038;BMP280;40937;53.594;10.034;2024-01-30T06:10:54;102727.44;;;5.64
55038;BMP280;40937;53.594;10.034;2024-01-30T06:13:22;102726.28;;;5.66
55038;BMP280;40937;53.594;10.034;2024-01-30T06:15:49;102719.31;;;5.57
55038;BMP280;40937;53.594;10.034;2024-01-30T06:18:16;102721.88;;;5.67
55038;BMP280;40937;53.594;10.034;2024-01-30T06:20:44;102706.94;;;5.77
55038;BMP280;40937;53.594;10.034;2024-01-30T06:23:13;102710.53;;;5.76
55038;BMP280;40937;53.594;10.034;2024-01-30T06:25:40;102705.88;;;5.70
55038;BMP280;40937;53.594;10.034;2024-01-30T06:28:08;102701.75;;;5.67
55038;BMP280;40937;53.594;10.034;2024-01-30T06:30:35;102703.41;;;5.68
55038;BMP280;40937;53.594;10.034;2024-01-30T06:33:02;102702.00;;;5.74
55038;BMP280;40937;53.594;10.034;2024-01-30T06:35:29;102704.66;;;5.82
55038;BMP280;40937;53.594;10.034;2024-01-30T06:37:57;102691.75;;;5.81
55038;BMP280;40937;53.594;10.034;2024-01-30T06:40:26;102688.75;;;5.76
55038;BMP280;40937;53.594;10.034;2024-01-30T06:42:53;102694.28;;;5.72
55038;BMP280;40937;53.594;10.034;2024-01-30T06:45:20;102694.41;;;5.71
55038;BMP280;40937;53.594;10.034;2024-01-30T06:47:47;102694.13;;;5.74
55038;BMP280;40937;53.594;10.034;2024-01-30T06:50:15;102696.75;;;5.74
55038;BMP280;40937;53.594;10.034;2024-01-30T06:52:42;102698.97;;;5.69
55038;BMP280;40937;53.594;10.034;2024-01-30T06:55:09;102694.03;;;5.66
55038;BMP280;40937;53.594;10.034;2024-01-30T06:57:38;102695.13;;;5.73
55038;BMP280;40937;53.594;10.034;2024-01-30T07:00:08;102692.50;;;5.73
55038;BMP280;40937;53.594;10.034;2024-01-30T07:02:36;102697.03;;;5.71
55038;BMP280;40937;53.594;10.034;2024-01-30T07:05:06;102695.03;;;5.65
55038;BMP280;40937;53.594;10.034;2024-01-30T07:07:33;102686.28;;;5.74
55038;BMP280;40937;53.594;10.034;2024-01-30T07:10:00;102685.31;;;5.75
55038;BMP280;40937;53.594;10.034;2024-01-30T07:12:28;102684.03;;;5.79
55038;BMP280;40937;53.594;10.034;2024-01-30T07:14:57;102686.66;;;5.79
55038;BMP280;40937;53.594;10.034;2024-01-30T07:17:28;102693.16;;;5.75
55038;BMP280;40937;53.594;10.034;2024-01-30T07:19:55;102691.22;;;5.77
55038;BMP280;40937;53.594;10.034;2024-01-30T07:22:23;102698.41;;;5.75
55038;BMP280;40937;53.594;10.034;2024-01-30T07:24:50;102696.16;;;5.80
55038;BMP280;40937;53.594;10.034;2024-01-30T07:27:18;102690.63;;;5.83
55038;BMP280;40937;53.594;10.034;2024-01-30T07:29:47;102685.03;;;5.78
55038;BMP280;40937;53.594;10.034;2024-01-30T07:32:16;102678.47;;;5.82
55038;BMP280;40937;53.594;10.034;2024-01-30T07:34:44;102682.97;;;5.90
55038;BMP280;40937;53.594;10.034;2024-01-30T07:37:12;102687.66;;;5.78
55038;BMP280;40937;53.594;10.034;2024-01-30T07:39:41;102685.38;;;5.83
55038;BMP280;40937;53.594;10.034;2024-01-30T07:42:09;102691.56;;;5.82
55038;BMP280;40937;53.594;10.034;2024-01-30T07:44:36;102688.47;;;5.79
55038;BMP280;40937;53.594;10.034;2024-01-30T07:47:05;102682.69;;;5.75
55038;BMP280;40937;53.594;10.034;2024-01-30T07:49:35;102686.66;;;5.79
55038;BMP280;40937;53.594;10.034;2024-01-30T07:52:05;102689.78;;;5.83
55038;BMP280;40937;53.594;10.034;2024-01-30T07:54:33;102695.19;;;5.81
55038;BMP280;40937;53.594;10.034;2024-01-30T07:57:00;102687.31;;;5.81
55038;BMP280;40937;53.594;10.034;2024-01-30T07:59:27;102690.56;;;5.93
55038;BMP280;40937;53.594;10.034;2024-01-30T08:01:55;102693.88;;;5.95
55038;BMP280;40937;53.594;10.034;2024-01-30T08:04:22;102687.25;;;5.91
55038;BMP280;40937;53.594;10.034;2024-01-30T08:06:50;102691.00;;;5.88
55038;BMP280;40937;53.594;10.034;2024-01-30T08:09:18;102683.41;;;5.95
55038;BMP280;40937;53.594;10.034;2024-01-30T08:11:45;102690.03;;;5.89
55038;BMP280;40937;53.594;10.034;2024-01-30T08:14:12;102682.03;;;5.91
55038;BMP280;40937;53.594;10.034;2024-01-30T08:16:40;102678.16;;;5.95
55038;BMP280;40937;53.594;10.034;2024-01-30T08:19:07;102680.91;;;5.94
55038;BMP280;40937;53.594;10.034;2024-01-30T08:21:35;102678.44;;;5.92
55038;BMP280;40937;53.594;10.034;2024-01-30T08:24:05;102681.88;;;5.93
55038;BMP280;40937;53.594;10.034;2024-01-30T08:26:35;102688.84;;;6.02
55038;BMP280;40937;53.594;10.034;2024-01-30T08:29:03;102691.47;;;6.02
55038;BMP280;40937;53.594;10.034;2024-01-30T08:31:30;102684.41;;;6.02
55038;BMP280;40937;53.594;10.034;2024-01-30T08:34:01;102682.63;;;6.03
55038;BMP280;40937;53.594;10.034;2024-01-30T08:36:28;102681.34;;;6.07
55038;BMP280;40937;53.594;10.034;2024-01-30T08:38:55;102680.81;;;6.03
55038;BMP280;40937;53.594;10.034;2024-01-30T08:41:24;102681.34;;;6.07
55038;BMP280;40937;53.594;10.034;2024-01-30T08:43:52;102674.19;;;6.09
55038;BMP280;40937;53.594;10.034;2024-01-30T08:46:19;102672.69;;;6.06
55038;BMP280;40937;53.594;10.034;2024-01-30T08:48:46;102668.63;;;6.12
55038;BMP280;40937;53.594;10.034;2024-01-30T08:51:17;102661.72;;;6.11
55038;BMP280;40937;53.594;10.034;2024-01-30T08:53:44;102655.59;;;6.20
55038;BMP280;40937;53.594;10.034;2024-01-30T08:56:11;102649.72;;;6.26
55038;BMP280;40937;53.594;10.034;2024-01-30T08:58:41;102639.91;;;6.28
55038;BMP280;40937;53.594;10.034;2024-01-30T09:01:08;102637.97;;;6.31
55038;BMP280;40937;53.594;10.034;2024-01-30T09:03:35;102632.41;;;6.34
55038;BMP280;40937;53.594;10.034;2024-01-30T09:06:08;102627.84;;;6.36
55038;BMP280;40937;53.594;10.034;2024-01-30T09:08:36;102630.66;;;6.42
55038;BMP280;40937;53.594;10.034;2024-01-30T09:11:08;102622.78;;;6.42
55038;BMP280;40937;53.594;10.034;2024-01-30T09:13:35;102614.47;;;6.47
55038;BMP280;40937;53.594;10.034;2024-01-30T09:16:05;102635.16;;;6.50
55038;BMP280;40937;53.594;10.034;2024-01-30T09:18:33;102642.53;;;6.55
55038;BMP280;40937;53.594;10.034;2024-01-30T09:21:00;102639.47;;;6.59
55038;BMP280;40937;53.594;10.034;2024-01-30T09:23:28;102642.75;;;6.61
55038;BMP280;40937;53.594;10.034;2024-01-30T09:25:55;102647.69;;;6.64
55038;BMP280;40937;53.594;10.034;2024-01-30T09:28:23;102644.56;;;6.69
55038;BMP280;40937;53.594;10.034;2024-01-30T09:30:54;102663.47;;;6.73
55038;BMP280;40937;53.594;10.034;2024-01-30T09:33:23;102655.31;;;6.76
55038;BMP280;40937;53.594;10.034;2024-01-30T09:35:50;102656.94;;;6.77
55038;BMP280;40937;53.594;10.034;2024-01-30T09:38:20;102664.66;;;6.78
55038;BMP280;40937;53.594;10.034;2024-01-30T09:40:53;102676.31;;;6.84
55038;BMP280;40937;53.594;10.034;2024-01-30T09:43:25;102669.75;;;6.88
55038;BMP280;40937;53.594;10.034;2024-01-30T09:45:54;102668.31;;;6.94
55038;BMP280;40937;53.594;10.034;2024-01-30T09:48:24;102670.78;;;6.95
55038;BMP280;40937;53.594;10.034;2024-01-30T09:50:56;102668.81;;;6.97
55038;BMP280;40937;53.594;10.034;2024-01-30T09:53:23;102662.28;;;7.01
55038;BMP280;40937;53.594;10.034;2024-01-30T09:55:55;102660.00;;;7.07
55038;BMP280;40937;53.594;10.034;2024-01-30T09:58:25;102653.78;;;7.08
55038;BMP280;40937;53.594;10.034;2024-01-30T10:00:52;102652.13;;;7.07
55038;BMP280;40937;53.594;10.034;2024-01-30T10:03:20;102646.56;;;7.10
55038;BMP280;40937;53.594;10.034;2024-01-30T10:05:52;102644.47;;;7.13
55038;BMP280;40937;53.594;10.034;2024-01-30T10:08:19;102635.44;;;7.16
55038;BMP280;40937;53.594;10.034;2024-01-30T10:10:47;102642.16;;;7.18
55038;BMP280;40937;53.594;10.034;2024-01-30T10:13:14;102633.16;;;7.21
55038;BMP280;40937;53.594;10.034;2024-01-30T10:15:41;102636.13;;;7.26
55038;BMP280;40937;53.594;10.034;2024-01-30T10:18:11;102632.38;;;7.29
55038;BMP280;40937;53.594;10.034;2024-01-30T10:20:39;102639.41;;;7.28
55038;BMP280;40937;53.594;10.034;2024-01-30T10:23:11;102633.81;;;7.31
55038;BMP280;40937;53.594;10.034;2024-01-30T10:25:38;102636.28;;;7.33
55038;BMP280;40937;53.594;10.034;2024-01-30T10:28:06;102638.44;;;7.37
55038;BMP280;40937;53.594;10.034;2024-01-30T10:30:33;102635.66;;;7.39
55038;BMP280;40937;53.594;10.034;2024-01-30T10:33:00;102632.88;;;7.40
55038;BMP280;40937;53.594;10.034;2024-01-30T10:35:28;102626.31;;;7.45
55038;BMP280;40937;53.594;10.034;2024-01-30T10:37:59;102625.31;;;7.46
55038;BMP280;40937;53.594;10.034;2024-01-30T10:40:33;102625.53;;;7.52
55038;BMP280;40937;53.594;10.034;2024-01-30T10:43:01;102625.34;;;7.54
55038;BMP280;40937;53.594;10.034;2024-01-30T10:45:29;102615.16;;;7.59
55038;BMP280;40937;53.594;10.034;2024-01-30T10:47:59;102618.44;;;7.61
55038;BMP280;40937;53.594;10.034;2024-01-30T10:50:27;102614.84;;;7.62
55038;BMP280;40937;53.594;10.034;2024-01-30T10:52:57;102616.16;;;7.66
55038;BMP280;40937;53.594;10.034;2024-01-30T10:55:29;102615.84;;;7.69
55038;BMP280;40937;53.594;10.034;2024-01-30T10:58:00;102621.75;;;7.71
55038;BMP280;40937;53.594;10.034;2024-01-30T11:00:29;102611.72;;;7.75
55038;BMP280;40937;53.594;10.034;2024-01-30T11:02:59;102615.34;;;7.82
55038;BMP280;40937;53.594;10.034;2024-01-30T11:05:28;102611.41;;;7.86
55038;BMP280;40937;53.594;10.034;2024-01-30T11:07:56;102613.50;;;7.91
55038;BMP280;40937;53.594;10.034;2024-01-30T11:10:25;102609.59;;;7.95
55038;BMP280;40937;53.594;10.034;2024-01-30T11:12:57;102604.00;;;7.98
55038;BMP280;40937;53.594;10.034;2024-01-30T11:15:25;102609.72;;;8.02
55038;BMP280;40937;53.594;10.034;2024-01-30T11:17:52;102610.25;;;8.05
55038;BMP280;40937;53.594;10.034;2024-01-30T11:20:27;102611.53;;;8.09
55038;BMP280;40937;53.594;10.034;2024-01-30T11:22:56;102606.94;;;8.11
55038;BMP280;40937;53.594;10.034;2024-01-30T11:25:25;102602.97;;;8.15
55038;BMP280;40937;53.594;10.034;2024-01-30T11:27:54;102606.28;;;8.17
55038;BMP280;40937;53.594;10.034;2024-01-30T11:30:24;102604.31;;;8.19
55038;BMP280;40937;53.594;10.034;2024-01-30T11:33:00;102614.31;;;8.24
55038;BMP280;40937;53.594;10.034;2024-01-30T11:35:33;102609.84;;;8.25
55038;BMP280;40937;53.594;10.034;2024-01-30T11:38:03;102607.91;;;8.27
55038;BMP280;40937;53.594;10.034;2024-01-30T11:40:34;102602.31;;;8.30
55038;BMP280;40937;53.594;10.034;2024-01-30T11:43:03;102595.69;;;8.34
55038;BMP280;40937;53.594;10.034;2024-01-30T11:45:35;102601.63;;;8.36
55038;BMP280;40937;53.594;10.034;2024-01-30T11:48:03;102580.75;;;8.34
55038;BMP280;40937;53.594;10.034;2024-01-30T11:50:32;102595.19;;;8.38
55038;BMP280;40937;53.594;10.034;2024-01-30T11:53:01;102588.81;;;8.41
55038;BMP280;40937;53.594;10.034;2024-01-30T11:55:29;102591.06;;;8.44
55038;BMP280;40937;53.594;10.034;2024-01-30T11:57:57;102595.31;;;8.45
55038;BMP280;40937;53.594;10.034;2024-01-30T12:00:27;102589.72;;;8.48
55038;BMP280;40937;53.594;10.034;2024-01-30T12:03:00;102595.00;;;8.48
55038;BMP280;40937;53.594;10.034;2024-01-30T12:05:29;102593.69;;;8.52
55038;BMP280;40937;53.594;10.034;2024-01-30T12:07:57;102586.41;;;8.54
55038;BMP280;40937;53.594;10.034;2024-01-30T12:10:27;102580.53;;;8.52
55038;BMP280;40937;53.594;10.034;2024-01-30T12:12:55;102581.81;;;8.56
55038;BMP280;40937;53.594;10.034;2024-01-30T12:15:24;102579.84;;;8.58
55038;BMP280;40937;53.594;10.034;2024-01-30T12:17:52;102577.84;;;8.61
55038;BMP280;40937;53.594;10.034;2024-01-30T12:20:35;102575.06;;;8.62
55038;BMP280;40937;53.594;10.034;2024-01-30T12:23:03;102578.16;;;8.66
55038;BMP280;40937;53.594;10.034;2024-01-30T12:25:30;102575.84;;;8.71
55038;BMP280;40937;53.594;10.034;2024-01-30T12:28:01;102570.22;;;8.74
55038;BMP280;40937;53.594;10.034;2024-01-30T12:30:29;102565.97;;;8.73
55038;BMP280;40937;53.594;10.034;2024-01-30T12:33:00;102565.59;;;8.76
55038;BMP280;40937;53.594;10.034;2024-01-30T12:35:30;102562.47;;;8.81
55038;BMP280;40937;53.594;10.034;2024-01-30T12:38:01;102562.94;;;8.84
55038;BMP280;40937;53.594;10.034;2024-01-30T12:40:34;102565.41;;;8.86
55038;BMP280;40937;53.594;10.034;2024-01-30T12:43:02;102568.69;;;8.88
55038;BMP280;40937;53.594;10.034;2024-01-30T12:45:30;102567.53;;;8.90
55038;BMP280;40937;53.594;10.034;2024-01-30T12:47:57;102558.63;;;8.91
55038;BMP280;40937;53.594;10.034;2024-01-30T12:50:25;102564.31;;;8.95
55038;BMP280;40937;53.594;10.034;2024-01-30T12:52:56;102561.34;;;8.98
55038;BMP280;40937;53.594;10.034;2024-01-30T12:55:25;102573.38;;;9.01
55038;BMP280;40937;53.594;10.034;2024-01-30T12:57:54;102566.94;;;9.03
55038;BMP280;40937;53.594;10.034;2024-01-30T13:00:32;102567.41;;;9.07
55038;BMP280;40937;53.594;10.034;2024-01-30T13:03:01;102566.06;;;9.11
55038;BMP280;40937;53.594;10.034;2024-01-30T13:05:31;102558.44;;;9.16
55038;BMP280;40937;53.594;10.034;2024-01-30T13:07:59;102555.47;;;9.19
55038;BMP280;40937;53.594;10.034;2024-01-30T13:10:28;102568.91;;;9.24
55038;BMP280;40937;53.594;10.034;2024-01-30T13:12:56;102572.22;;;9.26
55038;BMP280;40937;53.594;10.034;2024-01-30T13:15:25;102571.03;;;9.29
55038;BMP280;40937;53.594;10.034;2024-01-30T13:17:52;102569.88;;;9.31
55038;BMP280;40937;53.594;10.034;2024-01-30T13:20:20;102572.13;;;9.34
55038;BMP280;40937;53.594;10.034;2024-01-30T13:22:48;102569.16;;;9.38
55038;BMP280;40937;53.594;10.034;2024-01-30T13:25:16;102568.19;;;9.39
55038;BMP280;40937;53.594;10.034;2024-01-30T13:27:50;102572.06;;;9.43
55038;BMP280;40937;53.594;10.034;2024-01-30T13:30:18;102564.81;;;9.45
55038;BMP280;40937;53.594;10.034;2024-01-30T13:32:49;102561.19;;;9.46
55038;BMP280;40937;53.594;10.034;2024-01-30T13:35:23;102567.94;;;9.48
55038;BMP280;40937;53.594;10.034;2024-01-30T13:37:51;102556.38;;;9.49
55038;BMP280;40937;53.594;10.034;2024-01-30T13:40:21;102559.66;;;9.51
55038;BMP280;40937;53.594;10.034;2024-01-30T13:42:50;102561.25;;;9.52
55038;BMP280;40937;53.594;10.034;2024-01-30T13:45:18;102556.84;;;9.53
55038;BMP280;40937;53.594;10.034;2024-01-30T13:47:48;102559.13;;;9.56
55038;BMP280;40937;53.594;10.034;2024-01-30T13:50:16;102563.38;;;9.57
55038;BMP280;40937;53.594;10.034;2024-01-30T13:52:46;102551.84;;;9.58
55038;BMP280;40937;53.594;10.034;2024-01-30T13:55:14;102561.41;;;9.59
55038;BMP280;40937;53.594;10.034;2024-01-30T13:57:41;102553.31;;;9.61
55038;BMP280;40937;53.594;10.034;2024-01-30T14:00:13;102556.56;;;9.63
55038;BMP280;40937;53.594;10.034;2024-01-30T14:02:45;102549.47;;;9.63
55038;BMP280;40937;53.594;10.034;2024-01-30T14:05:15;102549.31;;;9.65